createdAt,value
2018-06-14T00:00:35.729Z,13.40
2018-06-14T00:03:04.076Z,13.40
2018-06-14T00:05:35.484Z,13.40
2018-06-14T00:08:03.882Z,13.30
2018-06-14T00:10:33.244Z,13.30
2018-06-14T00:13:01.617Z,13.30
2018-06-14T00:15:30.431Z,13.30
2018-06-14T00:17:58.830Z,13.20
2018-06-14T00:20:27.157Z,13.20
2018-06-14T00:22:55.517Z,13.20
2018-06-14T00:25:23.898Z,13.20
2018-06-14T00:27:52.246Z,13.10
2018-06-14T00:30:20.617Z,13.10
2018-06-14T00:32:48.948Z,13.00
2018-06-14T00:35:17.246Z,13.00
2018-06-14T00:37:45.587Z,12.90
2018-06-14T00:40:14.031Z,13.00
2018-06-14T00:42:42.407Z,13.00
2018-06-14T00:45:10.765Z,13.00
2018-06-14T00:47:39.071Z,13.00
2018-06-14T00:50:07.434Z,12.90
2018-06-14T00:52:35.819Z,12.90
2018-06-14T00:55:04.222Z,12.90
2018-06-14T00:57:33.060Z,12.90
2018-06-14T01:00:01.350Z,12.80
2018-06-14T01:02:29.687Z,12.80
2018-06-14T01:04:58.023Z,12.80
2018-06-14T01:07:26.379Z,12.80
2018-06-14T01:09:57.572Z,12.80
2018-06-14T01:12:25.926Z,12.80
2018-06-14T01:14:54.208Z,12.80
2018-06-14T01:17:22.516Z,12.80
2018-06-14T01:19:50.926Z,12.80
2018-06-14T01:22:19.227Z,12.70
2018-06-14T01:24:47.612Z,12.70
2018-06-14T01:27:16.063Z,12.70
2018-06-14T01:29:44.474Z,12.70
2018-06-14T01:32:12.817Z,12.70
2018-06-14T01:34:41.181Z,12.60
2018-06-14T01:37:09.499Z,12.60
2018-06-14T01:39:37.799Z,12.60
2018-06-14T01:42:06.153Z,12.50
2018-06-14T01:44:34.559Z,12.50
2018-06-14T01:47:02.900Z,12.50
2018-06-14T01:49:31.274Z,12.50
2018-06-14T01:51:59.687Z,12.40
2018-06-14T01:54:28.022Z,12.50
2018-06-14T01:56:56.327Z,12.40
2018-06-14T01:59:24.601Z,12.40
2018-06-14T02:01:52.948Z,12.30
2018-06-14T02:04:21.300Z,12.30
2018-06-14T02:06:50.186Z,12.40
2018-06-14T02:09:18.564Z,12.30
2018-06-14T02:11:46.920Z,12.30
2018-06-14T02:14:15.364Z,12.30
2018-06-14T02:16:43.710Z,12.30
2018-06-14T02:19:11.989Z,12.30
2018-06-14T02:21:40.324Z,12.20
2018-06-14T02:24:08.628Z,12.20
2018-06-14T02:26:36.959Z,12.20
2018-06-14T02:29:05.329Z,12.20
2018-06-14T02:31:33.682Z,12.10
2018-06-14T02:34:02.030Z,12.00
2018-06-14T02:36:30.359Z,12.00
2018-06-14T02:38:58.759Z,11.90
2018-06-14T02:41:27.072Z,11.90
2018-06-14T02:43:55.462Z,11.90
2018-06-14T02:46:23.854Z,11.80
2018-06-14T02:48:52.823Z,11.80
2018-06-14T02:51:21.168Z,11.80
2018-06-14T02:53:49.475Z,11.80
2018-06-14T02:56:17.836Z,11.80
2018-06-14T02:58:46.156Z,11.70
2018-06-14T03:01:14.458Z,11.70
2018-06-14T03:03:42.784Z,11.70
2018-06-14T03:06:11.151Z,11.70
2018-06-14T03:08:39.538Z,11.70
2018-06-14T03:11:07.842Z,11.60
2018-06-14T03:13:36.227Z,11.70
2018-06-14T03:16:04.588Z,11.70
2018-06-14T03:18:32.901Z,11.70
2018-06-14T03:21:03.548Z,11.80
2018-06-14T03:23:32.408Z,11.70
2018-06-14T03:26:00.843Z,11.60
2018-06-14T03:28:29.153Z,11.60
2018-06-14T03:30:57.585Z,11.60
2018-06-14T03:33:25.899Z,11.60
2018-06-14T03:35:54.209Z,11.50
2018-06-14T03:38:22.566Z,11.60
2018-06-14T03:40:57.504Z,11.60
2018-06-14T03:43:25.880Z,11.60
2018-06-14T03:45:54.382Z,11.60
2018-06-14T03:48:22.741Z,11.50
2018-06-14T03:50:51.019Z,11.50
2018-06-14T03:53:19.435Z,11.50
2018-06-14T03:55:47.784Z,11.60
2018-06-14T03:58:16.415Z,11.60
2018-06-14T04:00:44.774Z,11.60
2018-06-14T04:03:13.119Z,11.60
2018-06-14T04:05:41.573Z,11.60
2018-06-14T04:08:10.499Z,11.60
2018-06-14T04:10:38.935Z,11.70
2018-06-14T04:13:07.388Z,11.80
2018-06-14T04:15:36.027Z,11.80
2018-06-14T04:18:05.694Z,11.90
2018-06-14T04:20:34.893Z,12.00
2018-06-14T04:23:03.244Z,12.00
2018-06-14T04:25:31.599Z,12.00
2018-06-14T04:27:59.968Z,12.10
2018-06-14T04:30:28.261Z,12.10
2018-06-14T04:32:56.631Z,12.20
2018-06-14T04:35:24.998Z,12.20
2018-06-14T04:37:53.376Z,12.30
2018-06-14T04:40:21.683Z,12.30
2018-06-14T04:42:49.983Z,12.40
2018-06-14T04:45:18.365Z,12.50
2018-06-14T04:47:46.740Z,12.50
2018-06-14T04:50:15.179Z,12.60
2018-06-14T04:52:43.877Z,12.70
2018-06-14T04:55:12.290Z,12.70
2018-06-14T04:57:40.617Z,12.80
2018-06-14T05:00:10.327Z,12.80
2018-06-14T05:02:38.677Z,12.90
2018-06-14T05:05:07.584Z,13.00
2018-06-14T05:07:35.971Z,13.10
2018-06-14T05:10:04.271Z,13.10
2018-06-14T05:12:32.574Z,13.20
2018-06-14T05:15:00.998Z,13.20
2018-06-14T05:17:29.264Z,13.30
2018-06-14T05:19:57.575Z,13.40
2018-06-14T05:22:25.887Z,13.50
2018-06-14T05:24:54.252Z,13.60
2018-06-14T05:27:22.591Z,13.60
2018-06-14T05:29:51.172Z,13.60
2018-06-14T05:32:19.548Z,13.70
2018-06-14T05:34:47.875Z,13.70
2018-06-14T05:37:16.208Z,13.70
2018-06-14T05:39:44.598Z,13.80
2018-06-14T05:42:12.873Z,13.90
2018-06-14T05:44:41.264Z,13.90
2018-06-14T05:47:09.639Z,14.00
2018-06-14T05:49:37.962Z,14.10
2018-06-14T05:52:06.427Z,14.20
2018-06-14T05:54:34.782Z,14.30
2018-06-14T05:57:03.728Z,14.40
2018-06-14T05:59:32.206Z,14.40
2018-06-14T06:02:00.607Z,14.50
2018-06-14T06:04:28.920Z,14.60
2018-06-14T06:06:57.352Z,14.70
2018-06-14T06:09:26.306Z,14.70
2018-06-14T06:11:54.957Z,14.70
2018-06-14T06:14:23.284Z,14.80
2018-06-14T06:16:51.587Z,14.80
2018-06-14T06:19:19.928Z,14.90
2018-06-14T06:21:48.279Z,14.90
2018-06-14T06:24:16.637Z,15.00
2018-06-14T06:26:45.001Z,15.10
2018-06-14T06:29:13.341Z,15.20
2018-06-14T06:31:41.685Z,15.20
2018-06-14T06:34:10.067Z,15.40
2018-06-14T06:36:38.834Z,15.40
2018-06-14T06:39:08.902Z,15.50
2018-06-14T06:41:37.267Z,15.60
2018-06-14T06:44:05.715Z,15.70
2018-06-14T06:46:34.094Z,15.70
2018-06-14T06:49:02.611Z,15.70
2018-06-14T06:51:30.978Z,15.70
2018-06-14T06:53:59.309Z,15.80
2018-06-14T06:56:27.622Z,15.80
2018-06-14T06:58:56.005Z,15.90
2018-06-14T07:01:24.221Z,15.90
2018-06-14T07:03:52.578Z,16.00
2018-06-14T07:06:20.976Z,16.10
2018-06-14T07:08:49.302Z,16.20
2018-06-14T07:11:17.573Z,16.30
2018-06-14T07:16:20.490Z,16.40
2018-06-14T07:18:49.025Z,16.50
2018-06-14T07:21:17.587Z,16.60
2018-06-14T07:23:45.931Z,16.60
2018-06-14T07:26:14.255Z,16.80
2018-06-14T07:28:42.610Z,16.90
2018-06-14T07:31:11.215Z,16.90
2018-06-14T07:33:39.656Z,17.00
2018-06-14T07:36:08.004Z,17.00
2018-06-14T07:38:36.347Z,17.10
2018-06-14T07:41:04.663Z,17.20
2018-06-14T07:43:32.989Z,17.20
2018-06-14T07:46:01.597Z,17.30
2018-06-14T07:48:29.928Z,17.30
2018-06-14T07:50:58.389Z,17.30
2018-06-14T07:53:26.771Z,17.30
2018-06-14T07:55:55.093Z,17.40
2018-06-14T07:58:23.365Z,17.40
2018-06-14T08:00:51.790Z,17.50
2018-06-14T08:03:20.136Z,17.50
2018-06-14T08:05:48.424Z,17.60
2018-06-14T08:08:16.901Z,17.70
2018-06-14T08:10:45.298Z,17.70
2018-06-14T08:13:13.681Z,17.80
2018-06-14T08:15:42.030Z,17.80
2018-06-14T08:18:10.317Z,17.80
2018-06-14T08:20:38.682Z,17.90
2018-06-14T08:23:07.011Z,18.00
2018-06-14T08:25:35.378Z,18.10
2018-06-14T08:28:03.717Z,18.30
2018-06-14T08:30:32.643Z,18.40
2018-06-14T08:33:01.007Z,18.50
2018-06-14T08:35:29.340Z,18.50
2018-06-14T08:37:57.630Z,18.70
2018-06-14T08:40:26.021Z,18.80
2018-06-14T08:42:54.368Z,18.70
2018-06-14T08:45:22.822Z,18.80
2018-06-14T08:47:51.413Z,18.90
2018-06-14T08:50:19.740Z,19.10
2018-06-14T08:52:48.092Z,19.20
2018-06-14T08:55:16.527Z,19.20
2018-06-14T08:57:44.856Z,19.10
2018-06-14T09:00:13.160Z,19.00
2018-06-14T09:02:41.536Z,19.00
2018-06-14T09:05:09.846Z,19.00
2018-06-14T09:07:38.180Z,19.10
2018-06-14T09:10:06.515Z,19.30
2018-06-14T09:12:34.811Z,19.20
2018-06-14T09:15:03.209Z,19.10
2018-06-14T09:17:31.497Z,19.10
2018-06-14T09:19:59.892Z,18.90
2018-06-14T09:22:28.704Z,18.90
2018-06-14T09:24:57.055Z,18.90
2018-06-14T09:27:26.276Z,19.20
2018-06-14T09:29:54.663Z,19.40
2018-06-14T09:32:22.922Z,19.80
2018-06-14T09:34:51.346Z,19.90
2018-06-14T09:37:19.641Z,20.00
2018-06-14T09:39:47.975Z,20.10
2018-06-14T09:42:16.321Z,20.20
2018-06-14T09:44:44.662Z,20.40
2018-06-14T09:47:13.002Z,20.40
2018-06-14T09:49:41.343Z,20.40
2018-06-14T09:52:09.892Z,20.20
2018-06-14T09:54:38.275Z,20.30
2018-06-14T09:57:06.680Z,20.20
2018-06-14T09:59:35.041Z,20.40
2018-06-14T10:02:03.578Z,20.40
2018-06-14T10:04:31.947Z,20.30
2018-06-14T10:07:00.314Z,20.30
2018-06-14T10:09:28.649Z,20.20
2018-06-14T10:11:56.975Z,20.20
2018-06-14T10:14:25.269Z,20.40
2018-06-14T10:16:53.591Z,20.70
2018-06-14T10:19:21.951Z,20.60
2018-06-14T10:21:50.268Z,20.70
2018-06-14T10:24:18.534Z,20.70
2018-06-14T10:26:46.832Z,20.60
2018-06-14T10:29:15.237Z,20.60
2018-06-14T10:31:43.618Z,20.70
2018-06-14T10:34:11.926Z,21.10
2018-06-14T10:36:40.260Z,21.40
2018-06-14T10:39:09.054Z,21.40
2018-06-14T10:41:37.394Z,21.20
2018-06-14T10:44:05.724Z,21.00
2018-06-14T10:46:33.988Z,20.90
2018-06-14T10:49:02.368Z,21.10
2018-06-14T10:51:30.863Z,21.40
2018-06-14T10:53:59.312Z,21.50
2018-06-14T10:56:27.665Z,21.50
2018-06-14T10:58:56.075Z,21.60
2018-06-14T11:01:24.366Z,21.60
2018-06-14T11:03:52.702Z,21.60
2018-06-14T11:06:21.011Z,21.70
2018-06-14T11:08:49.358Z,21.50
2018-06-14T11:11:17.763Z,21.30
2018-06-14T11:13:46.143Z,21.40
2018-06-14T11:16:14.976Z,21.40
2018-06-14T11:18:43.276Z,21.60
2018-06-14T11:21:11.640Z,21.80
2018-06-14T11:23:39.966Z,22.00
2018-06-14T11:26:08.253Z,22.10
2018-06-14T11:28:36.543Z,22.30
2018-06-14T11:31:05.546Z,22.50
2018-06-14T11:33:33.855Z,22.60
2018-06-14T11:36:02.175Z,22.80
2018-06-14T11:38:30.502Z,22.90
2018-06-14T11:40:58.836Z,22.60
2018-06-14T11:43:27.285Z,22.60
2018-06-14T11:45:55.800Z,22.60
2018-06-14T11:48:24.197Z,22.80
2018-06-14T11:50:53.148Z,22.70
2018-06-14T11:53:21.496Z,22.80
2018-06-14T11:55:49.854Z,22.80
2018-06-14T11:58:18.214Z,22.80
2018-06-14T12:00:46.528Z,22.80
2018-06-14T12:03:14.832Z,22.80
2018-06-14T12:05:43.179Z,22.60
2018-06-14T12:08:11.504Z,22.60
2018-06-14T12:10:39.802Z,22.50
2018-06-14T12:13:08.172Z,22.30
2018-06-14T12:15:37.067Z,22.40
2018-06-14T12:18:05.348Z,22.50
2018-06-14T12:20:33.643Z,22.40
2018-06-14T12:23:01.981Z,22.50
2018-06-14T12:25:30.340Z,22.50
2018-06-14T12:27:58.818Z,22.50
2018-06-14T12:30:27.296Z,22.60
2018-06-14T12:32:55.671Z,22.80
2018-06-14T12:35:24.037Z,22.70
2018-06-14T12:37:52.387Z,22.50
2018-06-14T12:40:20.696Z,22.50
2018-06-14T12:42:49.006Z,22.60
2018-06-14T12:45:17.312Z,22.80
2018-06-14T12:47:45.620Z,22.90
2018-06-14T12:50:13.962Z,22.80
2018-06-14T12:55:10.400Z,22.90
2018-06-14T13:00:06.827Z,23.30
2018-06-14T13:02:35.164Z,23.40
2018-06-14T13:05:03.568Z,23.30
2018-06-14T13:07:31.983Z,23.10
2018-06-14T13:10:00.358Z,23.10
2018-06-14T13:12:28.697Z,23.00
2018-06-14T13:14:57.050Z,23.00
2018-06-14T13:17:25.384Z,23.00
2018-06-14T13:19:53.738Z,22.90
2018-06-14T13:22:22.082Z,22.80
2018-06-14T13:24:50.367Z,23.00
2018-06-14T13:27:18.699Z,23.00
2018-06-14T13:29:47.074Z,22.90
2018-06-14T13:32:15.531Z,22.90
2018-06-14T13:34:43.832Z,22.80
2018-06-14T13:37:12.128Z,23.10
2018-06-14T13:39:40.499Z,23.40
2018-06-14T13:42:08.847Z,23.50
2018-06-14T13:44:37.239Z,23.80
2018-06-14T13:47:05.579Z,23.70
2018-06-14T13:49:33.946Z,23.40
2018-06-14T13:52:02.932Z,23.40
2018-06-14T13:54:31.235Z,23.60
2018-06-14T13:56:59.610Z,23.50
2018-06-14T13:59:27.963Z,23.30
2018-06-14T14:01:56.343Z,23.20
2018-06-14T14:04:24.671Z,22.80
2018-06-14T14:07:10.538Z,22.80
2018-06-14T14:09:38.887Z,22.60
2018-06-14T14:12:07.300Z,22.40
2018-06-14T14:14:35.712Z,22.40
2018-06-14T14:17:04.010Z,22.40
2018-06-14T14:19:32.307Z,22.20
2018-06-14T14:22:00.637Z,22.00
2018-06-14T14:24:28.948Z,21.70
2018-06-14T14:26:57.244Z,21.60
2018-06-14T14:29:25.600Z,21.60
2018-06-14T14:31:53.954Z,21.50
2018-06-14T14:34:22.273Z,21.30
2018-06-14T14:36:50.603Z,21.30
2018-06-14T14:39:19.005Z,21.20
2018-06-14T14:41:47.420Z,21.30
2018-06-14T14:44:15.736Z,21.30
2018-06-14T14:46:44.119Z,21.20
2018-06-14T14:49:12.451Z,21.20
2018-06-14T14:51:40.784Z,21.00
2018-06-14T14:56:37.118Z,20.70
2018-06-14T14:59:05.455Z,20.60
2018-06-14T15:01:33.730Z,20.50
2018-06-14T15:04:02.293Z,20.30
2018-06-14T15:06:30.668Z,20.20
2018-06-14T15:08:59.003Z,20.00
2018-06-14T15:11:27.365Z,19.90
2018-06-14T15:13:55.756Z,19.90
2018-06-14T15:16:24.200Z,19.80
2018-06-14T15:18:52.556Z,19.80
2018-06-14T15:21:20.931Z,19.60
2018-06-14T15:23:49.223Z,19.50
2018-06-14T15:26:17.532Z,19.50
2018-06-14T15:28:45.883Z,19.30
2018-06-14T15:31:14.199Z,19.20
2018-06-14T15:33:42.497Z,19.10
2018-06-14T15:36:10.890Z,18.80
2018-06-14T15:38:39.226Z,18.70
2018-06-14T15:41:07.573Z,18.60
2018-06-14T15:43:35.907Z,18.50
2018-06-14T15:46:04.349Z,18.40
2018-06-14T15:48:32.849Z,18.30
2018-06-14T15:51:01.300Z,18.30
2018-06-14T15:53:29.738Z,18.20
2018-06-14T15:56:10.798Z,18.10
2018-06-14T15:58:39.162Z,18.00
2018-06-14T16:01:07.912Z,18.00
2018-06-14T16:03:36.245Z,18.00
2018-06-14T16:06:04.679Z,18.00
2018-06-14T16:08:33.147Z,18.00
2018-06-14T16:11:01.460Z,18.10
2018-06-14T16:13:29.762Z,18.10
2018-06-14T16:15:58.099Z,18.10
2018-06-14T16:18:26.418Z,18.00
2018-06-14T16:20:54.824Z,18.00
2018-06-14T16:23:23.221Z,18.00
2018-06-14T16:25:51.501Z,17.90
2018-06-14T16:28:19.823Z,17.80
2018-06-14T16:30:48.132Z,17.70
2018-06-14T16:33:16.483Z,17.70
2018-06-14T16:35:44.872Z,17.50
2018-06-14T16:38:13.222Z,17.50
2018-06-14T16:40:41.535Z,17.40
2018-06-14T16:43:10.390Z,17.30
2018-06-14T16:45:38.792Z,17.40
2018-06-14T16:48:07.560Z,17.20
2018-06-14T16:50:36.099Z,17.30
2018-06-14T16:53:04.789Z,17.20
2018-06-14T16:55:33.254Z,17.20
2018-06-14T16:58:01.767Z,17.20
2018-06-14T17:00:30.392Z,17.10
2018-06-14T17:02:58.792Z,17.10
2018-06-14T17:05:27.158Z,17.00
2018-06-14T17:07:55.432Z,17.00
2018-06-14T17:10:23.808Z,17.00
2018-06-14T17:12:52.251Z,17.00
2018-06-14T17:15:20.904Z,17.00
2018-06-14T17:17:49.226Z,17.00
2018-06-14T17:20:17.660Z,17.00
2018-06-14T17:22:46.291Z,17.00
2018-06-14T17:25:14.708Z,17.10
2018-06-14T17:27:43.084Z,17.00
2018-06-14T17:30:11.487Z,17.00
2018-06-14T17:32:39.809Z,17.00
2018-06-14T17:35:08.177Z,17.00
2018-06-14T17:37:36.489Z,17.00
2018-06-14T17:40:04.864Z,16.90
2018-06-14T17:42:33.199Z,16.90
2018-06-14T17:45:01.675Z,17.00
2018-06-14T17:47:29.968Z,17.00
2018-06-14T17:49:58.281Z,17.10
2018-06-14T17:52:26.630Z,17.10
2018-06-14T17:54:55.012Z,17.00
2018-06-14T17:57:23.425Z,17.00
2018-06-14T17:59:52.515Z,17.00
2018-06-14T18:02:20.890Z,17.00
2018-06-14T18:04:49.394Z,16.90
2018-06-14T18:07:17.818Z,16.90
2018-06-14T18:09:46.166Z,16.90
2018-06-14T18:12:14.583Z,16.90
2018-06-14T18:14:42.975Z,16.90
2018-06-14T18:17:11.513Z,17.00
2018-06-14T18:19:39.847Z,17.00
2018-06-14T18:22:08.377Z,17.00
2018-06-14T18:24:36.721Z,17.00
2018-06-14T18:27:05.173Z,17.00
2018-06-14T18:29:33.552Z,17.10
2018-06-14T18:32:01.905Z,17.10
2018-06-14T18:34:30.286Z,17.10
2018-06-14T18:39:26.809Z,17.10
2018-06-14T18:41:55.270Z,17.00
2018-06-14T18:44:23.773Z,17.00
2018-06-14T18:46:51.999Z,17.20
2018-06-14T18:49:20.331Z,17.10
2018-06-14T18:51:48.654Z,17.20
2018-06-14T18:54:17.000Z,17.20
2018-06-14T18:56:45.346Z,17.10
2018-06-14T18:59:13.668Z,17.10
2018-06-14T19:01:41.929Z,17.10
2018-06-14T19:04:10.343Z,17.00
2018-06-14T19:06:38.806Z,17.00
2018-06-14T19:09:08.466Z,16.90
2018-06-14T19:11:36.842Z,16.90
2018-06-14T19:14:05.345Z,16.90
2018-06-14T19:16:33.945Z,16.90
2018-06-14T19:19:02.368Z,16.80
2018-06-14T19:21:31.376Z,16.80
2018-06-14T19:24:00.372Z,16.80
2018-06-14T19:26:28.717Z,16.80
2018-06-14T19:28:57.068Z,16.80
2018-06-14T19:31:25.355Z,16.70
2018-06-14T19:33:53.999Z,16.70
2018-06-14T19:36:22.359Z,16.70
2018-06-14T19:38:50.699Z,16.60
2018-06-14T19:41:19.049Z,16.70
2018-06-14T19:43:47.392Z,16.70
2018-06-14T19:46:15.722Z,16.70
2018-06-14T19:48:44.079Z,16.70
2018-06-14T19:51:12.715Z,16.70
2018-06-14T19:56:05.127Z,16.70
2018-06-14T19:58:33.863Z,16.70
2018-06-14T20:01:02.647Z,16.70
2018-06-14T20:03:31.322Z,16.70
2018-06-14T20:06:00.055Z,16.70
2018-06-14T20:08:29.078Z,16.70
2018-06-14T20:10:57.865Z,16.70
2018-06-14T20:13:27.022Z,16.70
2018-06-14T20:15:55.742Z,16.70
2018-06-14T20:18:24.428Z,16.70
2018-06-14T20:20:53.417Z,16.80
2018-06-14T20:23:22.840Z,16.70
2018-06-14T20:25:51.751Z,16.70
2018-06-14T20:28:20.473Z,16.60
2018-06-14T20:30:50.224Z,16.60
2018-06-14T20:33:18.938Z,16.50
2018-06-14T20:35:48.925Z,16.50
2018-06-14T20:38:17.648Z,16.50
2018-06-14T20:40:48.384Z,16.50
2018-06-14T20:43:17.727Z,16.60
2018-06-14T20:45:47.749Z,16.60
2018-06-14T20:48:17.234Z,16.50
2018-06-14T20:50:46.705Z,16.50
2018-06-14T20:53:15.694Z,16.60
2018-06-14T20:55:45.237Z,16.60
2018-06-14T20:58:14.065Z,16.60
2018-06-14T21:00:42.727Z,16.60
2018-06-14T21:03:11.465Z,16.60
2018-06-14T21:05:40.337Z,16.50
2018-06-14T21:08:09.102Z,16.50
2018-06-14T21:10:38.019Z,16.50
2018-06-14T21:13:06.833Z,16.50
2018-06-14T21:15:36.389Z,16.50
2018-06-14T21:18:05.139Z,16.50
2018-06-14T21:20:33.836Z,16.40
2018-06-14T21:23:03.341Z,16.40
2018-06-14T21:25:32.155Z,16.50
2018-06-14T21:30:29.930Z,16.50
2018-06-14T21:32:58.817Z,16.40
2018-06-14T21:35:27.793Z,16.40
2018-06-14T21:37:56.735Z,16.40
2018-06-14T21:40:25.882Z,16.40
2018-06-14T21:42:54.769Z,16.40
2018-06-14T21:45:23.672Z,16.40
2018-06-14T21:47:52.322Z,16.50
2018-06-14T21:50:21.796Z,16.40
2018-06-14T21:52:50.426Z,16.50
2018-06-14T21:55:19.131Z,16.40
2018-06-14T21:57:47.768Z,16.50
2018-06-14T22:00:16.406Z,16.50
2018-06-14T22:02:50.304Z,16.50
2018-06-14T22:05:18.940Z,16.50
2018-06-14T22:07:47.583Z,16.40
2018-06-14T22:10:16.171Z,16.40
2018-06-14T22:12:44.823Z,16.40
2018-06-14T22:15:13.428Z,16.40
2018-06-14T22:17:41.987Z,16.30
2018-06-14T22:20:10.560Z,16.40
2018-06-14T22:22:39.181Z,16.40
2018-06-14T22:25:07.907Z,16.30
2018-06-14T22:27:36.561Z,16.30
2018-06-14T22:30:05.394Z,16.30
2018-06-14T22:32:34.391Z,16.30
2018-06-14T22:35:38.111Z,16.30
2018-06-14T22:38:06.796Z,16.30
2018-06-14T22:40:35.411Z,16.20
2018-06-14T22:43:04.768Z,16.20
2018-06-14T22:45:33.361Z,16.30
2018-06-14T22:48:01.892Z,16.20
2018-06-14T22:50:41.870Z,16.20
2018-06-14T22:53:11.116Z,16.30
2018-06-14T22:55:39.695Z,16.30
2018-06-14T22:58:08.248Z,16.30
2018-06-14T23:00:47.041Z,16.20
2018-06-14T23:03:15.586Z,16.10
2018-06-14T23:05:44.109Z,16.20
2018-06-14T23:08:12.734Z,16.20
2018-06-14T23:10:52.525Z,16.30
2018-06-14T23:13:21.035Z,16.30
2018-06-14T23:15:49.526Z,16.20
2018-06-14T23:18:18.053Z,16.20
2018-06-14T23:20:46.565Z,16.20
2018-06-14T23:23:15.178Z,16.20
2018-06-14T23:25:43.763Z,16.20
2018-06-14T23:28:12.318Z,16.30
2018-06-14T23:30:40.886Z,16.30
2018-06-14T23:33:10.491Z,16.30
2018-06-14T23:35:39.026Z,16.30
2018-06-14T23:38:07.542Z,16.40
2018-06-14T23:40:36.155Z,16.50
2018-06-14T23:43:04.633Z,16.40
2018-06-14T23:45:33.207Z,16.30
2018-06-14T23:48:01.778Z,16.30
2018-06-14T23:50:30.380Z,16.30
2018-06-14T23:52:58.955Z,16.30
2018-06-14T23:55:27.514Z,16.30
2018-06-14T23:57:56.086Z,16.20
